sensor_id;sensor_type;location;lat;lon;timestamp;temperature;humidity
52965;DHT22;42923;53.220;6.528;2023-04-03T00:00:40;1.80;99.90
52965;DHT22;42923;53.220;6.528;2023-04-03T00:03:06;1.80;99.90
52965;DHT22;42923;53.220;6.528;2023-04-03T00:05:32;1.80;99.90
52965;DHT22;42923;53.220;6.528;2023-04-03T00:07:57;1.80;99.90
52965;DHT22;42923;53.220;6.528;2023-04-03T00:10:23;1.80;99.90
52965;DHT22;42923;53.220;6.528;2023-04-03T00:12:49;1.80;99.90
52965;DHT22;42923;53.220;6.528;2023-04-03T00:15:15;1.80;99.90
52965;DHT22;42923;53.220;6.528;2023-04-03T00:17:41;1.80;99.90
52965;DHT22;42923;53.220;6.528;2023-04-03T00:20:07;1.80;99.90
52965;DHT22;42923;53.220;6.528;2023-04-03T00:22:33;1.80;99.90
52965;DHT22;42923;53.220;6.528;2023-04-03T00:24:58;1.80;99.90
52965;DHT22;42923;53.220;6.528;2023-04-03T00:27:24;1.80;99.90
52965;DHT22;42923;53.220;6.528;2023-04-03T00:29:50;1.80;99.90
52965;DHT22;42923;53.220;6.528;2023-04-03T00:32:16;1.80;99.90
52965;DHT22;42923;53.220;6.528;2023-04-03T00:34:41;1.80;99.90
52965;DHT22;42923;53.220;6.528;2023-04-03T00:37:07;1.80;99.90
52965;DHT22;42923;53.220;6.528;2023-04-03T00:39:33;1.80;99.90
52965;DHT22;42923;53.220;6.528;2023-04-03T00:41:59;1.80;99.90
52965;DHT22;42923;53.220;6.528;2023-04-03T00:46:53;1.80;99.90
52965;DHT22;42923;53.220;6.528;2023-04-03T00:49:19;1.80;99.90
52965;DHT22;42923;53.220;6.528;2023-04-03T00:51:45;1.70;99.90
52965;DHT22;42923;53.220;6.528;2023-04-03T00:54:11;1.70;99.90
52965;DHT22;42923;53.220;6.528;2023-04-03T00:56:38;1.70;99.90
52965;DHT22;42923;53.220;6.528;2023-04-03T00:59:08;1.70;99.90
52965;DHT22;42923;53.220;6.528;2023-04-03T01:01:35;1.80;99.90
52965;DHT22;42923;53.220;6.528;2023-04-03T01:04:02;1.60;99.90
52965;DHT22;42923;53.220;6.528;2023-04-03T01:06:32;1.60;99.90
52965;DHT22;42923;53.220;6.528;2023-04-03T01:09:05;1.50;99.90
52965;DHT22;42923;53.220;6.528;2023-04-03T01:11:31;1.50;99.90
52965;DHT22;42923;53.220;6.528;2023-04-03T01:13:57;1.50;99.90
52965;DHT22;42923;53.220;6.528;2023-04-03T01:16:24;1.50;99.90
52965;DHT22;42923;53.220;6.528;2023-04-03T01:18:49;1.40;99.90
52965;DHT22;42923;53.220;6.528;2023-04-03T01:26:59;1.40;99.90
52965;DHT22;42923;53.220;6.528;2023-04-03T01:29:26;1.40;99.90
52965;DHT22;42923;53.220;6.528;2023-04-03T01:31:56;1.40;99.90
52965;DHT22;42923;53.220;6.528;2023-04-03T01:34:23;1.40;99.90
52965;DHT22;42923;53.220;6.528;2023-04-03T01:36:50;1.30;99.90
52965;DHT22;42923;53.220;6.528;2023-04-03T01:39:16;1.30;99.90
52965;DHT22;42923;53.220;6.528;2023-04-03T01:41:42;1.30;99.90
52965;DHT22;42923;53.220;6.528;2023-04-03T01:44:17;1.20;99.90
52965;DHT22;42923;53.220;6.528;2023-04-03T01:46:44;1.20;99.90
52965;DHT22;42923;53.220;6.528;2023-04-03T01:49:10;1.20;99.90
52965;DHT22;42923;53.220;6.528;2023-04-03T01:51:36;1.20;99.90
52965;DHT22;42923;53.220;6.528;2023-04-03T01:54:02;1.20;99.90
52965;DHT22;42923;53.220;6.528;2023-04-03T01:56:27;1.20;99.90
52965;DHT22;42923;53.220;6.528;2023-04-03T01:58:55;1.10;99.90
52965;DHT22;42923;53.220;6.528;2023-04-03T02:01:21;1.10;99.90
52965;DHT22;42923;53.220;6.528;2023-04-03T02:03:47;1.10;99.90
52965;DHT22;42923;53.220;6.528;2023-04-03T02:06:13;1.10;99.90
52965;DHT22;42923;53.220;6.528;2023-04-03T02:08:39;1.10;99.90
52965;DHT22;42923;53.220;6.528;2023-04-03T02:11:05;1.00;99.90
52965;DHT22;42923;53.220;6.528;2023-04-03T02:13:32;1.10;99.90
52965;DHT22;42923;53.220;6.528;2023-04-03T02:15:59;1.00;99.90
52965;DHT22;42923;53.220;6.528;2023-04-03T02:18:24;0.90;99.90
52965;DHT22;42923;53.220;6.528;2023-04-03T02:20:50;0.90;99.90
52965;DHT22;42923;53.220;6.528;2023-04-03T02:23:16;0.90;99.90
52965;DHT22;42923;53.220;6.528;2023-04-03T02:25:41;0.90;99.90
52965;DHT22;42923;53.220;6.528;2023-04-03T02:28:07;0.90;99.90
52965;DHT22;42923;53.220;6.528;2023-04-03T02:30:33;0.90;99.90
52965;DHT22;42923;53.220;6.528;2023-04-03T02:32:59;0.90;99.90
52965;DHT22;42923;53.220;6.528;2023-04-03T02:35:25;0.90;99.90
52965;DHT22;42923;53.220;6.528;2023-04-03T02:37:52;0.90;99.90
52965;DHT22;42923;53.220;6.528;2023-04-03T02:40:18;0.80;99.90
52965;DHT22;42923;53.220;6.528;2023-04-03T02:42:44;0.70;99.90
52965;DHT22;42923;53.220;6.528;2023-04-03T02:45:10;0.70;99.90
52965;DHT22;42923;53.220;6.528;2023-04-03T02:47:36;0.70;99.90
52965;DHT22;42923;53.220;6.528;2023-04-03T02:50:02;0.60;99.90
52965;DHT22;42923;53.220;6.528;2023-04-03T02:52:27;0.60;99.90
52965;DHT22;42923;53.220;6.528;2023-04-03T02:54:56;0.60;99.90
52965;DHT22;42923;53.220;6.528;2023-04-03T02:57:22;0.50;99.90
52965;DHT22;42923;53.220;6.528;2023-04-03T02:59:48;0.50;99.90
52965;DHT22;42923;53.220;6.528;2023-04-03T03:02:14;0.60;99.90
52965;DHT22;42923;53.220;6.528;2023-04-03T03:04:39;0.50;99.90
52965;DHT22;42923;53.220;6.528;2023-04-03T03:07:05;0.50;99.90
52965;DHT22;42923;53.220;6.528;2023-04-03T03:09:31;0.50;99.90
52965;DHT22;42923;53.220;6.528;2023-04-03T03:11:57;0.50;99.90
52965;DHT22;42923;53.220;6.528;2023-04-03T03:14:23;0.40;99.90
52965;DHT22;42923;53.220;6.528;2023-04-03T03:16:49;0.40;99.90
52965;DHT22;42923;53.220;6.528;2023-04-03T03:19:15;0.40;99.90
52965;DHT22;42923;53.220;6.528;2023-04-03T03:21:41;0.30;99.90
52965;DHT22;42923;53.220;6.528;2023-04-03T03:24:07;0.20;99.90
52965;DHT22;42923;53.220;6.528;2023-04-03T03:26:32;0.20;99.90
52965;DHT22;42923;53.220;6.528;2023-04-03T03:28:58;0.10;99.90
52965;DHT22;42923;53.220;6.528;2023-04-03T03:31:25;0.00;99.90
52965;DHT22;42923;53.220;6.528;2023-04-03T03:33:51;0.00;99.90
52965;DHT22;42923;53.220;6.528;2023-04-03T03:36:16;-0.10;99.90
52965;DHT22;42923;53.220;6.528;2023-04-03T03:38:42;-0.10;99.90
52965;DHT22;42923;53.220;6.528;2023-04-03T03:41:09;-0.10;99.90
52965;DHT22;42923;53.220;6.528;2023-04-03T03:43:35;-0.20;99.90
52965;DHT22;42923;53.220;6.528;2023-04-03T03:46:02;-0.30;99.90
52965;DHT22;42923;53.220;6.528;2023-04-03T03:48:28;-0.30;99.90
52965;DHT22;42923;53.220;6.528;2023-04-03T03:50:55;-0.30;99.90
52965;DHT22;42923;53.220;6.528;2023-04-03T03:53:24;-0.30;99.90
52965;DHT22;42923;53.220;6.528;2023-04-03T03:55:53;-0.30;99.90
52965;DHT22;42923;53.220;6.528;2023-04-03T03:58:21;-0.30;99.90
52965;DHT22;42923;53.220;6.528;2023-04-03T04:00:47;-0.30;99.90
52965;DHT22;42923;53.220;6.528;2023-04-03T04:03:13;-0.30;99.90
52965;DHT22;42923;53.220;6.528;2023-04-03T04:05:40;-0.20;99.90
52965;DHT22;42923;53.220;6.528;2023-04-03T04:08:06;-0.30;99.90
52965;DHT22;42923;53.220;6.528;2023-04-03T04:10:33;-0.20;99.90
52965;DHT22;42923;53.220;6.528;2023-04-03T04:12:59;-0.20;99.90
52965;DHT22;42923;53.220;6.528;2023-04-03T04:15:27;-0.30;99.90
52965;DHT22;42923;53.220;6.528;2023-04-03T04:17:54;-0.30;99.90
52965;DHT22;42923;53.220;6.528;2023-04-03T04:20:20;-0.40;99.90
52965;DHT22;42923;53.220;6.528;2023-04-03T04:22:47;-0.40;99.90
52965;DHT22;42923;53.220;6.528;2023-04-03T04:25:13;-0.40;99.90
52965;DHT22;42923;53.220;6.528;2023-04-03T04:27:39;-0.50;99.90
52965;DHT22;42923;53.220;6.528;2023-04-03T04:30:07;-0.50;99.90
52965;DHT22;42923;53.220;6.528;2023-04-03T04:32:33;-0.50;99.90
52965;DHT22;42923;53.220;6.528;2023-04-03T04:34:59;-0.60;99.90
52965;DHT22;42923;53.220;6.528;2023-04-03T04:37:27;-0.70;99.90
52965;DHT22;42923;53.220;6.528;2023-04-03T04:39:52;-0.70;99.90
52965;DHT22;42923;53.220;6.528;2023-04-03T04:42:18;-0.80;99.90
52965;DHT22;42923;53.220;6.528;2023-04-03T04:44:47;-0.80;99.90
52965;DHT22;42923;53.220;6.528;2023-04-03T04:47:14;-0.80;99.90
52965;DHT22;42923;53.220;6.528;2023-04-03T04:49:40;-0.80;99.90
52965;DHT22;42923;53.220;6.528;2023-04-03T04:52:06;-0.80;99.90
52965;DHT22;42923;53.220;6.528;2023-04-03T04:54:32;-0.80;99.90
52965;DHT22;42923;53.220;6.528;2023-04-03T04:56:58;-0.80;99.90
52965;DHT22;42923;53.220;6.528;2023-04-03T04:59:25;-0.80;99.90
52965;DHT22;42923;53.220;6.528;2023-04-03T05:01:53;-0.80;99.90
52965;DHT22;42923;53.220;6.528;2023-04-03T05:04:19;-0.80;99.90
52965;DHT22;42923;53.220;6.528;2023-04-03T05:06:49;-0.80;99.90
52965;DHT22;42923;53.220;6.528;2023-04-03T05:09:20;-0.80;99.90
52965;DHT22;42923;53.220;6.528;2023-04-03T05:11:47;-0.80;99.90
52965;DHT22;42923;53.220;6.528;2023-04-03T05:14:14;-0.80;99.90
52965;DHT22;42923;53.220;6.528;2023-04-03T05:16:40;-0.80;99.90
52965;DHT22;42923;53.220;6.528;2023-04-03T05:19:06;-0.70;99.90
52965;DHT22;42923;53.220;6.528;2023-04-03T05:21:33;-0.70;99.90
52965;DHT22;42923;53.220;6.528;2023-04-03T05:24:02;-0.70;99.90
52965;DHT22;42923;53.220;6.528;2023-04-03T05:26:31;-0.70;99.90
52965;DHT22;42923;53.220;6.528;2023-04-03T05:28:58;-0.60;99.90
52965;DHT22;42923;53.220;6.528;2023-04-03T05:31:24;-0.60;99.90
52965;DHT22;42923;53.220;6.528;2023-04-03T05:33:50;-0.60;99.90
52965;DHT22;42923;53.220;6.528;2023-04-03T05:36:17;-0.60;99.90
52965;DHT22;42923;53.220;6.528;2023-04-03T05:38:47;-0.60;99.90
52965;DHT22;42923;53.220;6.528;2023-04-03T05:41:15;-0.50;99.90
52965;DHT22;42923;53.220;6.528;2023-04-03T05:43:43;-0.50;99.90
52965;DHT22;42923;53.220;6.528;2023-04-03T05:46:11;-0.50;99.90
52965;DHT22;42923;53.220;6.528;2023-04-03T05:48:38;-0.50;99.90
52965;DHT22;42923;53.220;6.528;2023-04-03T05:51:06;-0.40;99.90
52965;DHT22;42923;53.220;6.528;2023-04-03T05:53:35;-0.40;99.90
52965;DHT22;42923;53.220;6.528;2023-04-03T05:56:03;-0.30;99.90
52965;DHT22;42923;53.220;6.528;2023-04-03T05:58:33;-0.30;99.90
52965;DHT22;42923;53.220;6.528;2023-04-03T06:00:58;-0.20;99.90
52965;DHT22;42923;53.220;6.528;2023-04-03T06:03:24;-0.10;99.90
52965;DHT22;42923;53.220;6.528;2023-04-03T06:05:51;-0.10;99.90
52965;DHT22;42923;53.220;6.528;2023-04-03T06:08:16;0.00;99.90
52965;DHT22;42923;53.220;6.528;2023-04-03T06:10:42;0.10;99.90
52965;DHT22;42923;53.220;6.528;2023-04-03T06:13:08;0.20;99.90
52965;DHT22;42923;53.220;6.528;2023-04-03T06:15:34;0.30;99.90
52965;DHT22;42923;53.220;6.528;2023-04-03T06:18:00;1.00;99.90
52965;DHT22;42923;53.220;6.528;2023-04-03T06:20:26;0.60;99.90
52965;DHT22;42923;53.220;6.528;2023-04-03T06:22:52;0.70;99.90
52965;DHT22;42923;53.220;6.528;2023-04-03T06:25:18;0.80;99.90
52965;DHT22;42923;53.220;6.528;2023-04-03T06:27:45;1.00;99.90
52965;DHT22;42923;53.220;6.528;2023-04-03T06:30:11;1.10;99.90
52965;DHT22;42923;53.220;6.528;2023-04-03T06:32:37;1.20;99.90
52965;DHT22;42923;53.220;6.528;2023-04-03T06:35:04;1.60;99.90
52965;DHT22;42923;53.220;6.528;2023-04-03T06:37:30;1.60;99.90
52965;DHT22;42923;53.220;6.528;2023-04-03T06:39:58;1.80;99.90
52965;DHT22;42923;53.220;6.528;2023-04-03T06:42:25;2.20;99.90
52965;DHT22;42923;53.220;6.528;2023-04-03T06:44:58;2.40;99.90
52965;DHT22;42923;53.220;6.528;2023-04-03T06:47:23;2.60;99.90
52965;DHT22;42923;53.220;6.528;2023-04-03T06:49:49;2.80;99.90
52965;DHT22;42923;53.220;6.528;2023-04-03T06:52:15;3.00;99.90
52965;DHT22;42923;53.220;6.528;2023-04-03T06:54:41;3.00;99.90
52965;DHT22;42923;53.220;6.528;2023-04-03T06:57:07;3.10;99.90
52965;DHT22;42923;53.220;6.528;2023-04-03T06:59:34;3.20;99.90
52965;DHT22;42923;53.220;6.528;2023-04-03T07:01:59;3.40;99.90
52965;DHT22;42923;53.220;6.528;2023-04-03T07:04:25;3.50;99.90
52965;DHT22;42923;53.220;6.528;2023-04-03T07:06:52;3.60;99.90
52965;DHT22;42923;53.220;6.528;2023-04-03T07:09:18;3.80;99.90
52965;DHT22;42923;53.220;6.528;2023-04-03T07:11:44;3.90;99.90
52965;DHT22;42923;53.220;6.528;2023-04-03T07:14:10;3.90;99.90
52965;DHT22;42923;53.220;6.528;2023-04-03T07:16:36;3.90;99.90
52965;DHT22;42923;53.220;6.528;2023-04-03T07:19:02;4.00;99.90
52965;DHT22;42923;53.220;6.528;2023-04-03T07:21:28;4.00;99.90
52965;DHT22;42923;53.220;6.528;2023-04-03T07:23:55;4.00;99.90
52965;DHT22;42923;53.220;6.528;2023-04-03T07:26:21;4.20;99.90
52965;DHT22;42923;53.220;6.528;2023-04-03T07:28:48;4.20;99.90
52965;DHT22;42923;53.220;6.528;2023-04-03T07:31:16;4.10;99.90
52965;DHT22;42923;53.220;6.528;2023-04-03T07:33:43;4.10;99.90
52965;DHT22;42923;53.220;6.528;2023-04-03T07:36:10;4.20;99.90
52965;DHT22;42923;53.220;6.528;2023-04-03T07:38:39;4.20;99.90
52965;DHT22;42923;53.220;6.528;2023-04-03T07:41:05;4.20;99.90
52965;DHT22;42923;53.220;6.528;2023-04-03T07:43:31;4.40;99.90
52965;DHT22;42923;53.220;6.528;2023-04-03T07:45:57;4.70;99.90
52965;DHT22;42923;53.220;6.528;2023-04-03T07:48:25;4.80;99.90
52965;DHT22;42923;53.220;6.528;2023-04-03T07:50:51;4.90;99.90
52965;DHT22;42923;53.220;6.528;2023-04-03T07:53:18;5.00;99.90
52965;DHT22;42923;53.220;6.528;2023-04-03T07:55:47;5.00;99.90
52965;DHT22;42923;53.220;6.528;2023-04-03T07:58:17;5.00;99.90
52965;DHT22;42923;53.220;6.528;2023-04-03T08:00:43;5.00;99.90
52965;DHT22;42923;53.220;6.528;2023-04-03T08:03:10;5.20;99.90
52965;DHT22;42923;53.220;6.528;2023-04-03T08:05:41;5.30;99.90
52965;DHT22;42923;53.220;6.528;2023-04-03T08:08:07;5.50;99.90
52965;DHT22;42923;53.220;6.528;2023-04-03T08:10:34;5.40;99.90
52965;DHT22;42923;53.220;6.528;2023-04-03T08:13:00;5.40;99.90
52965;DHT22;42923;53.220;6.528;2023-04-03T08:15:26;5.40;99.90
52965;DHT22;42923;53.220;6.528;2023-04-03T08:17:52;5.50;99.90
52965;DHT22;42923;53.220;6.528;2023-04-03T08:20:18;5.50;99.90
52965;DHT22;42923;53.220;6.528;2023-04-03T08:22:44;5.60;99.90
52965;DHT22;42923;53.220;6.528;2023-04-03T08:25:10;5.60;99.90
52965;DHT22;42923;53.220;6.528;2023-04-03T08:27:36;5.60;99.90
52965;DHT22;42923;53.220;6.528;2023-04-03T08:30:03;5.80;99.90
52965;DHT22;42923;53.220;6.528;2023-04-03T08:32:29;6.20;99.90
52965;DHT22;42923;53.220;6.528;2023-04-03T08:34:55;7.30;99.90
52965;DHT22;42923;53.220;6.528;2023-04-03T08:37:21;7.00;99.90
52965;DHT22;42923;53.220;6.528;2023-04-03T08:39:47;7.20;99.90
52965;DHT22;42923;53.220;6.528;2023-04-03T08:45:09;7.30;99.90
52965;DHT22;42923;53.220;6.528;2023-04-03T08:47:46;7.30;99.90
52965;DHT22;42923;53.220;6.528;2023-04-03T08:50:17;7.40;99.90
52965;DHT22;42923;53.220;6.528;2023-04-03T08:52:56;7.60;99.90
52965;DHT22;42923;53.220;6.528;2023-04-03T08:55:29;7.70;99.90
52965;DHT22;42923;53.220;6.528;2023-04-03T08:58:04;7.70;99.90
52965;DHT22;42923;53.220;6.528;2023-04-03T09:00:45;7.70;99.90
52965;DHT22;42923;53.220;6.528;2023-04-03T09:03:15;7.70;99.90
52965;DHT22;42923;53.220;6.528;2023-04-03T09:08:23;7.90;99.90
52965;DHT22;42923;53.220;6.528;2023-04-03T09:10:54;8.10;99.90
52965;DHT22;42923;53.220;6.528;2023-04-03T09:13:39;8.30;99.90
52965;DHT22;42923;53.220;6.528;2023-04-03T09:22:26;8.20;99.90
52965;DHT22;42923;53.220;6.528;2023-04-03T09:24:58;8.20;99.90
52965;DHT22;42923;53.220;6.528;2023-04-03T09:27:25;8.30;99.90
52965;DHT22;42923;53.220;6.528;2023-04-03T09:29:53;8.20;95.90
52965;DHT22;42923;53.220;6.528;2023-04-03T09:32:29;8.10;96.20
52965;DHT22;42923;53.220;6.528;2023-04-03T09:34:59;8.00;91.10
52965;DHT22;42923;53.220;6.528;2023-04-03T09:37:36;7.90;95.20
52965;DHT22;42923;53.220;6.528;2023-04-03T09:40:04;7.90;93.30
52965;DHT22;42923;53.220;6.528;2023-04-03T09:42:31;7.90;94.00
52965;DHT22;42923;53.220;6.528;2023-04-03T09:45:02;8.00;96.30
52965;DHT22;42923;53.220;6.528;2023-04-03T09:47:32;8.10;99.90
52965;DHT22;42923;53.220;6.528;2023-04-03T09:52:41;8.40;99.30
52965;DHT22;42923;53.220;6.528;2023-04-03T09:55:14;8.50;96.60
52965;DHT22;42923;53.220;6.528;2023-04-03T09:57:41;8.60;97.40
52965;DHT22;42923;53.220;6.528;2023-04-03T10:00:20;8.70;96.40
52965;DHT22;42923;53.220;6.528;2023-04-03T10:02:50;8.70;89.70
52965;DHT22;42923;53.220;6.528;2023-04-03T10:05:36;8.80;91.20
52965;DHT22;42923;53.220;6.528;2023-04-03T10:10:44;9.00;94.50
52965;DHT22;42923;53.220;6.528;2023-04-03T10:13:18;9.50;95.30
52965;DHT22;42923;53.220;6.528;2023-04-03T10:15:48;9.50;95.80
52965;DHT22;42923;53.220;6.528;2023-04-03T10:18:49;9.60;94.00
52965;DHT22;42923;53.220;6.528;2023-04-03T10:24:10;10.10;87.00
52965;DHT22;42923;53.220;6.528;2023-04-03T10:29:27;10.70;90.80
52965;DHT22;42923;53.220;6.528;2023-04-03T10:34:51;11.40;84.00
52965;DHT22;42923;53.220;6.528;2023-04-03T10:37:24;11.50;85.70
52965;DHT22;42923;53.220;6.528;2023-04-03T10:39:59;11.80;76.60
52965;DHT22;42923;53.220;6.528;2023-04-03T10:53:37;12.30;72.70
52965;DHT22;42923;53.220;6.528;2023-04-03T10:59:18;12.70;68.20
52965;DHT22;42923;53.220;6.528;2023-04-03T11:02:04;12.80;67.60
52965;DHT22;42923;53.220;6.528;2023-04-03T11:04:35;12.80;67.70
52965;DHT22;42923;53.220;6.528;2023-04-03T11:07:08;12.70;66.90
52965;DHT22;42923;53.220;6.528;2023-04-03T11:09:40;12.70;62.60
52965;DHT22;42923;53.220;6.528;2023-04-03T11:12:21;12.60;64.60
52965;DHT22;42923;53.220;6.528;2023-04-03T11:14:50;12.40;62.80
52965;DHT22;42923;53.220;6.528;2023-04-03T11:20:10;12.70;67.30
52965;DHT22;42923;53.220;6.528;2023-04-03T11:22:47;13.10;65.70
52965;DHT22;42923;53.220;6.528;2023-04-03T11:25:16;13.50;67.50
52965;DHT22;42923;53.220;6.528;2023-04-03T11:30:46;13.80;65.20
52965;DHT22;42923;53.220;6.528;2023-04-03T11:33:21;13.80;64.40
52965;DHT22;42923;53.220;6.528;2023-04-03T11:35:58;13.80;63.80
52965;DHT22;42923;53.220;6.528;2023-04-03T11:38:33;13.90;65.70
52965;DHT22;42923;53.220;6.528;2023-04-03T11:41:03;14.00;66.00
52965;DHT22;42923;53.220;6.528;2023-04-03T11:43:32;14.00;65.20
52965;DHT22;42923;53.220;6.528;2023-04-03T11:46:04;13.90;64.20
52965;DHT22;42923;53.220;6.528;2023-04-03T11:53:42;13.70;63.10
52965;DHT22;42923;53.220;6.528;2023-04-03T11:59:16;14.00;60.80
52965;DHT22;42923;53.220;6.528;2023-04-03T12:01:57;14.10;62.60
52965;DHT22;42923;53.220;6.528;2023-04-03T12:04:27;14.20;63.30
52965;DHT22;42923;53.220;6.528;2023-04-03T12:07:15;14.20;61.30
52965;DHT22;42923;53.220;6.528;2023-04-03T12:12:30;14.10;62.10
52965;DHT22;42923;53.220;6.528;2023-04-03T12:15:23;14.10;56.30
52965;DHT22;42923;53.220;6.528;2023-04-03T12:17:49;14.10;59.10
52965;DHT22;42923;53.220;6.528;2023-04-03T12:23:26;14.40;61.90
52965;DHT22;42923;53.220;6.528;2023-04-03T12:26:00;14.70;60.70
52965;DHT22;42923;53.220;6.528;2023-04-03T12:28:28;14.70;60.80
52965;DHT22;42923;53.220;6.528;2023-04-03T12:30:54;14.70;59.80
52965;DHT22;42923;53.220;6.528;2023-04-03T12:36:15;14.90;59.70
52965;DHT22;42923;53.220;6.528;2023-04-03T12:38:53;14.90;58.70
52965;DHT22;42923;53.220;6.528;2023-04-03T12:46:42;14.80;61.60
52965;DHT22;42923;53.220;6.528;2023-04-03T12:49:20;15.00;62.00
52965;DHT22;42923;53.220;6.528;2023-04-03T12:51:48;15.10;56.70
52965;DHT22;42923;53.220;6.528;2023-04-03T12:56:42;15.10;59.20
52965;DHT22;42923;53.220;6.528;2023-04-03T13:01:40;14.60;55.80
52965;DHT22;42923;53.220;6.528;2023-04-03T13:04:05;14.30;56.70
52965;DHT22;42923;53.220;6.528;2023-04-03T13:06:42;14.10;56.20
52965;DHT22;42923;53.220;6.528;2023-04-03T13:09:19;14.20;58.00
52965;DHT22;42923;53.220;6.528;2023-04-03T13:11:46;14.40;57.90
52965;DHT22;42923;53.220;6.528;2023-04-03T13:14:20;14.60;58.10
52965;DHT22;42923;53.220;6.528;2023-04-03T13:19:31;15.10;58.00
52965;DHT22;42923;53.220;6.528;2023-04-03T13:22:08;15.40;58.10
52965;DHT22;42923;53.220;6.528;2023-04-03T13:24:37;15.60;58.30
52965;DHT22;42923;53.220;6.528;2023-04-03T13:27:03;15.80;57.50
52965;DHT22;42923;53.220;6.528;2023-04-03T13:29:33;15.80;57.10
52965;DHT22;42923;53.220;6.528;2023-04-03T13:32:00;15.80;55.70
52965;DHT22;42923;53.220;6.528;2023-04-03T13:34:27;15.80;57.60
52965;DHT22;42923;53.220;6.528;2023-04-03T13:36:59;15.80;55.50
52965;DHT22;42923;53.220;6.528;2023-04-03T13:39:26;15.40;53.30
52965;DHT22;42923;53.220;6.528;2023-04-03T13:41:53;15.10;55.30
52965;DHT22;42923;53.220;6.528;2023-04-03T13:46:58;15.30;57.10
52965;DHT22;42923;53.220;6.528;2023-04-03T13:49:34;15.30;54.40
52965;DHT22;42923;53.220;6.528;2023-04-03T13:52:01;15.20;55.10
52965;DHT22;42923;53.220;6.528;2023-04-03T13:54:33;15.30;55.60
52965;DHT22;42923;53.220;6.528;2023-04-03T13:57:00;15.60;52.80
52965;DHT22;42923;53.220;6.528;2023-04-03T14:02:09;15.90;56.70
52965;DHT22;42923;53.220;6.528;2023-04-03T14:07:01;16.00;55.40
52965;DHT22;42923;53.220;6.528;2023-04-03T14:09:27;16.40;56.80
52965;DHT22;42923;53.220;6.528;2023-04-03T14:11:53;16.50;55.50
52965;DHT22;42923;53.220;6.528;2023-04-03T14:14:21;15.90;54.20
52965;DHT22;42923;53.220;6.528;2023-04-03T14:16:50;15.50;55.80
52965;DHT22;42923;53.220;6.528;2023-04-03T14:19:18;15.50;56.70
52965;DHT22;42923;53.220;6.528;2023-04-03T14:21:44;15.70;56.80
52965;DHT22;42923;53.220;6.528;2023-04-03T14:24:10;15.50;55.60
52965;DHT22;42923;53.220;6.528;2023-04-03T14:26:36;15.30;55.10
52965;DHT22;42923;53.220;6.528;2023-04-03T14:29:02;15.10;54.10
52965;DHT22;42923;53.220;6.528;2023-04-03T14:31:28;14.90;55.60
52965;DHT22;42923;53.220;6.528;2023-04-03T14:33:53;14.90;55.00
52965;DHT22;42923;53.220;6.528;2023-04-03T14:36:20;14.80;56.10
52965;DHT22;42923;53.220;6.528;2023-04-03T14:38:47;14.60;55.50
52965;DHT22;42923;53.220;6.528;2023-04-03T14:41:13;14.50;57.10
52965;DHT22;42923;53.220;6.528;2023-04-03T14:43:40;14.70;56.30
52965;DHT22;42923;53.220;6.528;2023-04-03T14:46:09;14.50;55.20
52965;DHT22;42923;53.220;6.528;2023-04-03T14:48:37;14.40;56.40
52965;DHT22;42923;53.220;6.528;2023-04-03T14:51:02;14.30;56.00
52965;DHT22;42923;53.220;6.528;2023-04-03T14:53:28;14.20;57.10
52965;DHT22;42923;53.220;6.528;2023-04-03T14:55:56;14.30;57.20
52965;DHT22;42923;53.220;6.528;2023-04-03T14:58:21;14.20;56.40
52965;DHT22;42923;53.220;6.528;2023-04-03T15:00:47;13.50;56.60
52965;DHT22;42923;53.220;6.528;2023-04-03T15:03:16;13.10;58.60
52965;DHT22;42923;53.220;6.528;2023-04-03T15:05:43;13.20;60.10
52965;DHT22;42923;53.220;6.528;2023-04-03T15:08:19;13.70;58.30
52965;DHT22;42923;53.220;6.528;2023-04-03T15:10:46;13.70;58.30
52965;DHT22;42923;53.220;6.528;2023-04-03T15:13:12;13.80;58.70
52965;DHT22;42923;53.220;6.528;2023-04-03T15:15:37;13.50;58.20
52965;DHT22;42923;53.220;6.528;2023-04-03T15:18:03;12.70;58.40
52965;DHT22;42923;53.220;6.528;2023-04-03T15:20:30;11.90;59.10
52965;DHT22;42923;53.220;6.528;2023-04-03T15:22:57;11.40;59.80
52965;DHT22;42923;53.220;6.528;2023-04-03T15:25:25;10.90;61.00
52965;DHT22;42923;53.220;6.528;2023-04-03T15:27:52;10.50;60.40
52965;DHT22;42923;53.220;6.528;2023-04-03T15:30:18;10.10;60.90
52965;DHT22;42923;53.220;6.528;2023-04-03T15:32:44;9.80;61.50
52965;DHT22;42923;53.220;6.528;2023-04-03T15:35:09;9.60;61.90
52965;DHT22;42923;53.220;6.528;2023-04-03T15:37:35;9.50;61.80
52965;DHT22;42923;53.220;6.528;2023-04-03T15:40:01;9.40;61.00
52965;DHT22;42923;53.220;6.528;2023-04-03T15:42:26;9.30;61.40
52965;DHT22;42923;53.220;6.528;2023-04-03T15:44:52;9.30;61.70
52965;DHT22;42923;53.220;6.528;2023-04-03T15:47:18;9.20;62.00
52965;DHT22;42923;53.220;6.528;2023-04-03T15:49:43;9.00;62.60
52965;DHT22;42923;53.220;6.528;2023-04-03T15:52:09;8.80;63.00
52965;DHT22;42923;53.220;6.528;2023-04-03T15:54:35;8.70;63.60
52965;DHT22;42923;53.220;6.528;2023-04-03T15:57:00;8.60;63.80
52965;DHT22;42923;53.220;6.528;2023-04-03T15:59:26;8.60;64.10
52965;DHT22;42923;53.220;6.528;2023-04-03T16:01:51;8.60;64.10
52965;DHT22;42923;53.220;6.528;2023-04-03T16:04:18;8.50;64.10
52965;DHT22;42923;53.220;6.528;2023-04-03T16:06:43;8.50;64.40
52965;DHT22;42923;53.220;6.528;2023-04-03T16:09:09;8.50;65.00
52965;DHT22;42923;53.220;6.528;2023-04-03T16:11:35;8.40;65.20
52965;DHT22;42923;53.220;6.528;2023-04-03T16:14:04;8.30;65.40
52965;DHT22;42923;53.220;6.528;2023-04-03T16:16:30;8.20;65.80
52965;DHT22;42923;53.220;6.528;2023-04-03T16:18:55;8.10;65.80
52965;DHT22;42923;53.220;6.528;2023-04-03T16:21:21;8.00;65.90
52965;DHT22;42923;53.220;6.528;2023-04-03T16:23:47;8.00;66.30
52965;DHT22;42923;53.220;6.528;2023-04-03T16:26:13;7.90;67.10
52965;DHT22;42923;53.220;6.528;2023-04-03T16:28:39;7.90;67.40
52965;DHT22;42923;53.220;6.528;2023-04-03T16:31:06;7.90;67.70
52965;DHT22;42923;53.220;6.528;2023-04-03T16:33:32;7.80;67.80
52965;DHT22;42923;53.220;6.528;2023-04-03T16:35:58;7.80;67.90
52965;DHT22;42923;53.220;6.528;2023-04-03T16:38:24;7.80;68.30
52965;DHT22;42923;53.220;6.528;2023-04-03T16:40:50;7.70;68.10
52965;DHT22;42923;53.220;6.528;2023-04-03T16:43:17;7.60;68.30
52965;DHT22;42923;53.220;6.528;2023-04-03T16:45:43;7.60;68.50
52965;DHT22;42923;53.220;6.528;2023-04-03T16:48:08;7.50;68.50
52965;DHT22;42923;53.220;6.528;2023-04-03T16:50:34;8.30;69.10
52965;DHT22;42923;53.220;6.528;2023-04-03T16:53:00;7.40;69.10
52965;DHT22;42923;53.220;6.528;2023-04-03T16:55:28;7.30;69.60
52965;DHT22;42923;53.220;6.528;2023-04-03T16:57:54;7.30;70.20
52965;DHT22;42923;53.220;6.528;2023-04-03T17:00:20;7.20;70.50
52965;DHT22;42923;53.220;6.528;2023-04-03T17:02:46;7.10;70.60
52965;DHT22;42923;53.220;6.528;2023-04-03T17:05:12;7.10;71.00
52965;DHT22;42923;53.220;6.528;2023-04-03T17:07:37;7.00;71.70
52965;DHT22;42923;53.220;6.528;2023-04-03T17:10:03;7.00;71.90
52965;DHT22;42923;53.220;6.528;2023-04-03T17:12:29;6.90;71.70
52965;DHT22;42923;53.220;6.528;2023-04-03T17:14:54;6.80;72.10